Time;durP1;ratioP1;P1;durP2;ratioP2;P2;SDS_P1;SDS_P2;PMS_P1;PMS_P2;Temp;Humidity;BMP_temperature;BMP_pressure;BME280_temperature;BME280_humidity;BME280_pressure;Samples;Min_cycle;Max_cycle;Signal;HPM_P1;HPM_P2
2021/06/21 00:00:47;;;;;;;0.7;0.7;;;;;;;21.39;75.85449;930.9931;;;;
2021/06/21 00:03:16;;;;;;;2.9;1.8;;;;;;;21.25;76.13672;931.1131;;;;
2021/06/21 00:05:41;;;;;;;0.7;0.7;;;;;;;21.23;76.03906;931.1642;;;;
2021/06/21 00:08:07;;;;;;;6;1.2;;;;;;;21.26;75.40039;931.1639;;;;
2021/06/21 00:10:31;;;;;;;1.5;0.8;;;;;;;21.33;75.09668;931.1973;;;;
2021/06/21 00:12:57;;;;;;;0.9;0.8;;;;;;;21.39;74.4043;931.2521;;;;
2021/06/21 00:15:25;;;;;;;5.2;1.4;;;;;;;21.37;74.36328;931.2347;;;;
2021/06/21 00:17:51;;;;;;;1.7;1.1;;;;;;;21.41;74.13672;931.2264;;;;
2021/06/21 00:20:16;;;;;;;4.3;1.3;;;;;;;21.33;74.35938;931.2305;;;;
2021/06/21 00:22:42;;;;;;;1.4;1.1;;;;;;;21.24;74.66992;931.2764;;;;
2021/06/21 00:25:08;;;;;;;4.2;1.5;;;;;;;21.18;74.83594;931.2695;;;;
2021/06/21 00:27:34;;;;;;;0.7;0.7;;;;;;;21.29;74.22266;931.2403;;;;
2021/06/21 00:29:59;;;;;;;6;1.5;;;;;;;21.33;73.90234;931.1189;;;;
2021/06/21 00:32:24;;;;;;;1.5;1.4;;;;;;;21.26;74.42871;931.1528;;;;
2021/06/21 00:34:50;;;;;;;1.4;1.3;;;;;;;21.16;74.78516;931.2042;;;;
2021/06/21 00:39:43;;;;;;;4.3;1.2;;;;;;;21.2;74.59375;931.0129;;;;
2021/06/21 00:42:08;;;;;;;2.9;1;;;;;;;21.13;75.22461;930.9684;;;;
2021/06/21 00:44:33;;;;;;;1;0.6;;;;;;;21.2;75.00293;931.0291;;;;
2021/06/21 00:46:59;;;;;;;0.9;0.9;;;;;;;21.21;74.65332;931.0798;;;;
2021/06/21 00:49:25;;;;;;;0.4;0.4;;;;;;;21.12;75.03809;930.9822;;;;
2021/06/21 00:52:00;;;;;;;0.8;0.8;;;;;;;21.08;75.12402;930.9442;;;;
2021/06/21 00:54:25;;;;;;;1.1;1;;;;;;;21.08;75.28711;930.8998;;;;
2021/06/21 00:56:50;;;;;;;1;0.8;;;;;;;21.12;75.0498;930.8931;;;;
2021/06/21 00:59:19;;;;;;;0.5;0.5;;;;;;;21.15;74.73828;930.9472;;;;
2021/06/21 01:01:44;;;;;;;0.7;0.5;;;;;;;21.18;74.55566;930.9861;;;;
2021/06/21 01:04:09;;;;;;;1.4;0.9;;;;;;;21.23;74.2959;930.9285;;;;
2021/06/21 01:06:34;;;;;;;0.7;0.7;;;;;;;21.27;74.89844;930.9677;;;;
2021/06/21 01:08:59;;;;;;;0.7;0.6;;;;;;;21.34;74.72363;930.8762;;;;
2021/06/21 01:11:27;;;;;;;3.7;1.5;;;;;;;21.25;74.54395;930.978;;;;
2021/06/21 01:13:49;;;;;;;2;1.1;;;;;;;21.27;74.6875;930.9626;;;;
2021/06/21 01:16:16;;;;;;;1.9;1.4;;;;;;;21.2;75.16797;930.8638;;;;
2021/06/21 01:18:41;;;;;;;0.4;0.4;;;;;;;21.2;75.30859;930.9035;;;;
2021/06/21 01:21:08;;;;;;;0.8;0.7;;;;;;;21.2;75.33203;930.9026;;;;
2021/06/21 01:23:33;;;;;;;4.4;1.5;;;;;;;20.99;75.79785;930.8555;;;;
2021/06/21 01:25:59;;;;;;;6.7;1.6;;;;;;;21.06;75.85547;930.8303;;;;
2021/06/21 01:28:24;;;;;;;2.8;1.1;;;;;;;21.07;76.04785;930.8605;;;;
2021/06/21 01:30:50;;;;;;;3.4;1.7;;;;;;;20.99;76.0791;930.7843;;;;
2021/06/21 01:33:15;;;;;;;12.1;2.5;;;;;;;20.95;76.58691;930.7414;;;;
2021/06/21 01:35:41;;;;;;;0.8;0.8;;;;;;;20.96;76.52832;930.7518;;;;
2021/06/21 01:38:06;;;;;;;0.5;0.5;;;;;;;21.02;76.50586;930.78;;;;
2021/06/21 01:40:35;;;;;;;1.9;1.3;;;;;;;21.1;75.71289;930.7886;;;;
2021/06/21 01:43:00;;;;;;;0.6;0.6;;;;;;;20.77;77;930.7608;;;;
2021/06/21 01:45:25;;;;;;;1.1;1;;;;;;;20.58;78.06348;930.8222;;;;
2021/06/21 01:47:51;;;;;;;4.4;1.4;;;;;;;20.51;78.88184;930.8387;;;;
2021/06/21 01:50:16;;;;;;;1;1;;;;;;;20.52;79.10547;930.873;;;;
2021/06/21 01:52:41;;;;;;;0.6;0.6;;;;;;;20.65;78.75586;930.8621;;;;
2021/06/21 01:55:10;;;;;;;3.4;1;;;;;;;20.54;79.58789;930.8553;;;;
2021/06/21 01:57:35;;;;;;;1.2;1.1;;;;;;;20.57;79.25391;930.8168;;;;
2021/06/21 02:00:00;;;;;;;1;1;;;;;;;20.67;78.89941;930.7863;;;;
2021/06/21 02:02:25;;;;;;;0.5;0.5;;;;;;;20.79;78.24219;930.8281;;;;
2021/06/21 02:04:52;;;;;;;0.7;0.7;;;;;;;20.79;78.15039;930.7842;;;;
2021/06/21 02:08:15;;;;;;;3;1.4;;;;;;;20.75;78.29395;930.8345;;;;
2021/06/21 02:10:40;;;;;;;1.2;1.1;;;;;;;20.8;78.05664;930.7896;;;;
2021/06/21 02:13:05;;;;;;;0.5;0.5;;;;;;;20.8;77.95117;930.7581;;;;
2021/06/21 02:15:30;;;;;;;1.1;0.9;;;;;;;20.63;77.36035;930.796;;;;
2021/06/21 02:17:55;;;;;;;0.6;0.6;;;;;;;20.65;77.51563;930.8486;;;;
2021/06/21 02:20:20;;;;;;;1.2;0.8;;;;;;;20.58;78.12402;930.8453;;;;
2021/06/21 02:22:45;;;;;;;2.4;0.9;;;;;;;20.68;77.9873;930.8208;;;;
2021/06/21 02:25:10;;;;;;;5.2;1.1;;;;;;;20.72;77.79688;930.8399;;;;
2021/06/21 02:27:36;;;;;;;1;0.9;;;;;;;20.77;77.65332;930.9222;;;;
2021/06/21 02:30:02;;;;;;;0.7;0.7;;;;;;;20.69;77.88574;931.0023;;;;
2021/06/21 02:32:27;;;;;;;0.4;0.4;;;;;;;20.63;78.24805;930.966;;;;
2021/06/21 02:34:52;;;;;;;1.3;1;;;;;;;20.57;78.56445;930.9844;;;;
2021/06/21 02:37:17;;;;;;;1.2;1.1;;;;;;;20.59;78.41699;931.0179;;;;
2021/06/21 02:39:43;;;;;;;0.5;0.5;;;;;;;20.55;78.50293;931.0773;;;;
2021/06/21 02:42:11;;;;;;;7.5;1.6;;;;;;;20.54;78.5127;931.0131;;;;
2021/06/21 02:44:36;;;;;;;0.2;0.2;;;;;;;20.56;78.37793;931.063;;;;
2021/06/21 02:47:01;;;;;;;4.2;0.9;;;;;;;20.65;78.29883;931.1609;;;;
2021/06/21 02:49:26;;;;;;;0.5;0.5;;;;;;;20.66;77.58691;931.2495;;;;
2021/06/21 02:51:52;;;;;;;7.2;1.3;;;;;;;20.6;76.75977;931.3137;;;;
2021/06/21 02:54:17;;;;;;;1.4;1.3;;;;;;;20.09;80.13672;931.401;;;;
2021/06/21 02:56:43;;;;;;;1.8;1;;;;;;;20.17;79.75488;931.4026;;;;
2021/06/21 02:59:07;;;;;;;1;0.9;;;;;;;20.26;79.43359;931.3582;;;;
2021/06/21 03:01:32;;;;;;;0.6;0.6;;;;;;;20.29;79.13379;931.3554;;;;
2021/06/21 03:03:58;;;;;;;0.5;0.5;;;;;;;20.31;78.95117;931.3967;;;;
2021/06/21 03:06:23;;;;;;;0.9;0.9;;;;;;;20.27;79.13184;931.4409;;;;
2021/06/21 03:08:48;;;;;;;0.9;0.9;;;;;;;20.32;79.01172;931.4067;;;;
2021/06/21 03:11:14;;;;;;;5.9;1.9;;;;;;;20.34;79.12012;931.4342;;;;
2021/06/21 03:13:39;;;;;;;1.1;0.7;;;;;;;20.31;79.08008;931.5212;;;;
2021/06/21 03:16:04;;;;;;;0.9;0.8;;;;;;;20.36;78.96094;931.5119;;;;
2021/06/21 03:18:30;;;;;;;2;1.6;;;;;;;20.38;78.76465;931.5784;;;;
2021/06/21 03:20:55;;;;;;;1;0.8;;;;;;;20.36;78.71582;931.5539;;;;
2021/06/21 03:23:23;;;;;;;1.1;0.8;;;;;;;20.33;79.0127;931.6061;;;;
2021/06/21 03:25:47;;;;;;;2.5;1.2;;;;;;;20.21;79.26074;931.654;;;;
2021/06/21 03:28:14;;;;;;;0.6;0.6;;;;;;;20.1;79.8584;931.6923;;;;
2021/06/21 03:30:40;;;;;;;1.5;1.3;;;;;;;20.07;80.15527;931.7801;;;;
2021/06/21 03:33:04;;;;;;;0.8;0.7;;;;;;;19.91;80.7334;931.7566;;;;
2021/06/21 03:35:30;;;;;;;0.8;0.8;;;;;;;19.82;81.05566;931.7346;;;;
2021/06/21 03:37:55;;;;;;;0.6;0.6;;;;;;;19.92;80.48047;931.8061;;;;
2021/06/21 03:40:21;;;;;;;0.5;0.5;;;;;;;20.06;80.25977;931.8652;;;;
2021/06/21 03:42:45;;;;;;;3.9;1.5;;;;;;;20.08;79.70508;931.8376;;;;
2021/06/21 03:45:10;;;;;;;11.3;1.8;;;;;;;20.18;78.93945;931.8309;;;;
2021/06/21 03:47:36;;;;;;;0.2;0.2;;;;;;;20.22;78.79492;931.9394;;;;
2021/06/21 03:50:01;;;;;;;1.2;1.1;;;;;;;20.18;79.34961;932.028;;;;
2021/06/21 03:52:28;;;;;;;1.6;1;;;;;;;20.05;80.15332;931.9327;;;;
2021/06/21 03:55:06;;;;;;;1.7;1.6;;;;;;;20.05;80.5166;931.9227;;;;
2021/06/21 03:57:18;;;;;;;0.7;0.5;;;;;;;20.11;80.28125;931.9821;;;;
2021/06/21 03:59:44;;;;;;;2.2;1.2;;;;;;;20.03;80.69824;931.9914;;;;
2021/06/21 04:02:30;;;;;;;1.3;0.8;;;;;;;20;81.08887;931.9843;;;;
2021/06/21 04:04:55;;;;;;;2.2;1.2;;;;;;;20.03;80.99023;932.0609;;;;
2021/06/21 04:07:20;;;;;;;2;1.1;;;;;;;20.13;80.64648;932.1292;;;;
2021/06/21 04:09:45;;;;;;;2.4;1.4;;;;;;;20.18;79.96582;932.218;;;;
2021/06/21 04:12:12;;;;;;;0.8;0.8;;;;;;;20.27;79.80762;932.2562;;;;
2021/06/21 04:14:36;;;;;;;0.8;0.8;;;;;;;20.27;80.0293;932.3056;;;;
2021/06/21 04:17:02;;;;;;;1.2;1.1;;;;;;;20.29;79.98535;932.3208;;;;
2021/06/21 04:19:28;;;;;;;2;1.7;;;;;;;20.27;80.36816;932.308;;;;
2021/06/21 04:21:53;;;;;;;1;0.9;;;;;;;20.3;80.53613;932.407;;;;
2021/06/21 04:24:19;;;;;;;2;1.6;;;;;;;20.41;80.06738;932.3174;;;;
2021/06/21 04:26:44;;;;;;;4.7;1.9;;;;;;;20.52;79.72461;932.3742;;;;
2021/06/21 04:29:09;;;;;;;2.8;1.6;;;;;;;20.49;80.03516;932.4359;;;;
2021/06/21 04:31:35;;;;;;;0.7;0.7;;;;;;;20.5;80.16309;932.4866;;;;
2021/06/21 04:34:00;;;;;;;5.1;2.3;;;;;;;20.65;79.8877;932.5119;;;;
2021/06/21 04:36:27;;;;;;;1.2;1.1;;;;;;;20.69;78.80859;932.4651;;;;
2021/06/21 04:38:52;;;;;;;4.4;1.6;;;;;;;20.62;79.07617;932.4059;;;;
2021/06/21 04:41:19;;;;;;;3.9;1.5;;;;;;;20.72;79.17578;932.4519;;;;
2021/06/21 04:43:44;;;;;;;0.6;0.6;;;;;;;20.76;78.75;932.4413;;;;
2021/06/21 04:46:12;;;;;;;1.5;1.4;;;;;;;20.69;78.375;932.5162;;;;
2021/06/21 04:48:36;;;;;;;1.7;1.6;;;;;;;20.71;78.6582;932.475;;;;
2021/06/21 04:51:03;;;;;;;0.7;0.5;;;;;;;20.74;78.55957;932.3897;;;;
2021/06/21 04:53:29;;;;;;;3.5;2.1;;;;;;;20.65;78.66211;932.4348;;;;
2021/06/21 04:55:55;;;;;;;0.6;0.6;;;;;;;20.83;78.35352;932.4656;;;;
2021/06/21 04:58:20;;;;;;;1.5;1.2;;;;;;;21.02;78.27051;932.4297;;;;
2021/06/21 05:00:45;;;;;;;2.4;1.7;;;;;;;20.92;78.96582;932.4005;;;;
2021/06/21 05:03:10;;;;;;;1.2;1.1;;;;;;;21.17;78.58789;932.4515;;;;
2021/06/21 05:05:37;;;;;;;0.9;0.9;;;;;;;21.35;77.68555;932.4414;;;;
2021/06/21 05:08:02;;;;;;;0.6;0.6;;;;;;;21.43;77.00977;932.5209;;;;
2021/06/21 05:10:27;;;;;;;0.9;0.9;;;;;;;21.41;76.25586;932.5555;;;;
2021/06/21 05:12:52;;;;;;;2.5;1.3;;;;;;;21.51;76.41309;932.3703;;;;
2021/06/21 05:15:17;;;;;;;1.6;1.3;;;;;;;21.57;75.6748;932.3588;;;;
2021/06/21 05:17:42;;;;;;;3.9;1.3;;;;;;;21.59;75.75977;932.3896;;;;
2021/06/21 05:20:07;;;;;;;2.7;1.9;;;;;;;21.47;76.02246;932.4001;;;;
2021/06/21 05:22:33;;;;;;;1.3;0.8;;;;;;;21.67;75.87891;932.3872;;;;
2021/06/21 05:24:59;;;;;;;3.5;1.6;;;;;;;21.81;73.87793;932.2383;;;;
2021/06/21 05:27:24;;;;;;;1.7;1.2;;;;;;;21.82;75.03809;932.2949;;;;
2021/06/21 05:29:49;;;;;;;0.7;0.7;;;;;;;21.93;74.57422;932.3019;;;;
2021/06/21 05:32:17;;;;;;;1.1;1;;;;;;;22.27;72.32324;932.3069;;;;
2021/06/21 05:34:42;;;;;;;2.8;2;;;;;;;22.5;70.44922;932.3785;;;;
2021/06/21 05:37:08;;;;;;;0.9;0.9;;;;;;;22.76;71.32227;932.3653;;;;
2021/06/21 05:39:33;;;;;;;1.2;1.1;;;;;;;22.7;71.09082;932.3258;;;;
2021/06/21 05:41:58;;;;;;;2.2;1.1;;;;;;;22.7;70.91309;932.3455;;;;
2021/06/21 05:44:24;;;;;;;0.8;0.8;;;;;;;22.58;71.3877;932.2921;;;;
2021/06/21 05:46:51;;;;;;;4;2.1;;;;;;;22.71;69.88184;932.2831;;;;
2021/06/21 05:49:16;;;;;;;0.5;0.5;;;;;;;22.77;69.71582;932.2341;;;;
2021/06/21 05:51:42;;;;;;;3.4;1.5;;;;;;;23.27;67.37207;932.2224;;;;
2021/06/21 05:54:07;;;;;;;0.5;0.5;;;;;;;24.06;64.17188;932.2137;;;;
2021/06/21 05:56:33;;;;;;;0.5;0.5;;;;;;;25.08;60.89648;932.1283;;;;
2021/06/21 05:58:59;;;;;;;0.5;0.5;;;;;;;26.58;55.25098;932.2004;;;;
2021/06/21 06:01:25;;;;;;;1.3;1.2;;;;;;;27.25;52.58203;932.1422;;;;
2021/06/21 06:03:51;;;;;;;3.8;1.8;;;;;;;28.08;51.07617;932.1497;;;;
2021/06/21 06:06:16;;;;;;;1.6;1.1;;;;;;;28.28;50.93262;932.0636;;;;
2021/06/21 06:08:41;;;;;;;2.3;1.4;;;;;;;26.91;54.92383;932.0541;;;;
2021/06/21 06:11:07;;;;;;;1.4;0.9;;;;;;;26.15;58.14355;932.0583;;;;
2021/06/21 06:13:32;;;;;;;3.8;2.3;;;;;;;25.75;59.67578;932.0668;;;;
2021/06/21 06:16:01;;;;;;;0.8;0.8;;;;;;;26.42;57.55176;932.0803;;;;
2021/06/21 06:18:26;;;;;;;0.6;0.6;;;;;;;26.7;55.76367;932.0709;;;;
2021/06/21 06:20:51;;;;;;;10;1.9;;;;;;;26.18;58.05371;932.1181;;;;
2021/06/21 06:23:16;;;;;;;2.9;2.2;;;;;;;25.7;58.77051;932.153;;;;
2021/06/21 06:25:41;;;;;;;1.2;1.1;;;;;;;26.85;55.39063;932.0929;;;;
2021/06/21 06:28:06;;;;;;;1;0.9;;;;;;;27.9;52.6709;932.074;;;;
2021/06/21 06:30:34;;;;;;;0.8;0.6;;;;;;;28.72;49.68457;932.0737;;;;
2021/06/21 06:32:58;;;;;;;6.9;2.5;;;;;;;29.26;48.25586;932.0187;;;;
2021/06/21 06:35:23;;;;;;;1.8;1.2;;;;;;;29.28;48.28125;932.0632;;;;
2021/06/21 06:37:49;;;;;;;6.6;2.1;;;;;;;29.16;48.46973;932.0636;;;;
2021/06/21 06:40:14;;;;;;;22.9;2.7;;;;;;;29.92;46.26172;932.0337;;;;
2021/06/21 06:42:39;;;;;;;0.8;0.8;;;;;;;28.87;46.03613;932.1144;;;;
2021/06/21 06:45:04;;;;;;;1.8;1.2;;;;;;;29.24;46.90625;932.1099;;;;
2021/06/21 06:47:31;;;;;;;0.5;0.5;;;;;;;30.06;43.54297;932.0478;;;;
2021/06/21 06:49:55;;;;;;;0.8;0.6;;;;;;;31.35;40.40039;932.0726;;;;
2021/06/21 06:52:23;;;;;;;0.9;0.9;;;;;;;31.23;40.77344;932.0012;;;;
2021/06/21 06:56:57;;;;;;;1.1;0.9;;;;;;;30.48;43.89453;931.9672;;;;
2021/06/21 06:57:12;;;;;;;1.2;1.1;;;;;;;29.86;43.72754;931.907;;;;
2021/06/21 06:59:37;;;;;;;0.4;0.4;;;;;;;29.34;45.01074;931.986;;;;
2021/06/21 07:02:02;;;;;;;3.2;1;;;;;;;27.9;47.78906;931.9565;;;;
2021/06/21 07:04:28;;;;;;;1.7;0.8;;;;;;;26.54;53.0918;931.9247;;;;
2021/06/21 07:06:53;;;;;;;1.4;1.2;;;;;;;25.74;55.25391;931.9587;;;;
2021/06/21 07:09:20;;;;;;;1.1;1;;;;;;;25.64;56.08105;931.9589;;;;
2021/06/21 07:11:45;;;;;;;1.1;1;;;;;;;25.64;55.51367;931.9286;;;;
2021/06/21 07:14:11;;;;;;;2.4;0.4;;;;;;;24.69;58.83887;931.9478;;;;
2021/06/21 07:16:36;;;;;;;1;0.4;;;;;;;24.87;58.04883;931.8965;;;;
2021/06/21 07:19:03;;;;;;;1.1;0.8;;;;;;;25.02;58.72949;931.933;;;;
2021/06/21 07:21:28;;;;;;;0.8;0.3;;;;;;;25.05;58.20215;931.9595;;;;
2021/06/21 07:23:53;;;;;;;0.4;0.4;;;;;;;24.49;59.37891;931.9662;;;;
2021/06/21 07:26:19;;;;;;;0.4;0.4;;;;;;;24.27;59.12598;931.927;;;;
2021/06/21 07:28:45;;;;;;;0.5;0.5;;;;;;;24.98;58.0625;931.9047;;;;
2021/06/21 07:31:09;;;;;;;1.6;1.5;;;;;;;25.48;56.24902;931.8896;;;;
2021/06/21 07:33:35;;;;;;;1;0.6;;;;;;;25.77;55.82617;931.9022;;;;
2021/06/21 07:36:00;;;;;;;3.8;1.1;;;;;;;26.18;53.8418;931.9099;;;;
2021/06/21 07:38:26;;;;;;;6.4;2.1;;;;;;;26.53;54.15527;931.9132;;;;
2021/06/21 07:40:52;;;;;;;0.5;0.5;;;;;;;26.26;53.49609;931.93;;;;
2021/06/21 07:43:17;;;;;;;0.2;0.2;;;;;;;26.27;51.0127;931.9114;;;;
2021/06/21 07:45:42;;;;;;;0.7;0.6;;;;;;;25.91;51.18457;931.8845;;;;
2021/06/21 07:48:07;;;;;;;0.5;0.5;;;;;;;26.74;51.4209;931.8795;;;;
2021/06/21 07:50:34;;;;;;;2.7;1;;;;;;;26.98;51.49609;931.8602;;;;
2021/06/21 07:53:01;;;;;;;0.5;0.5;;;;;;;27.96;48.83984;931.7733;;;;
2021/06/21 07:55:27;;;;;;;0.5;0.5;;;;;;;28.42;46.8457;931.7378;;;;
2021/06/21 07:57:51;;;;;;;1.6;0.8;;;;;;;28.58;49.34863;931.7981;;;;
2021/06/21 08:00:21;;;;;;;0.7;0.7;;;;;;;27.76;49.98242;931.8303;;;;
2021/06/21 08:02:45;;;;;;;3.5;2.4;;;;;;;28.31;47.29785;931.7647;;;;
2021/06/21 08:05:09;;;;;;;1.4;0.7;;;;;;;26.56;50.58398;931.8221;;;;
2021/06/21 08:07:36;;;;;;;5.5;1.1;;;;;;;26.84;50.87598;931.7648;;;;
2021/06/21 08:10:01;;;;;;;2.2;1.9;;;;;;;26.78;52.24316;931.7612;;;;
2021/06/21 08:12:26;;;;;;;2.1;1.1;;;;;;;26.34;52.40527;931.7111;;;;
2021/06/21 08:14:53;;;;;;;1.1;1;;;;;;;25.73;52.32129;931.67;;;;
2021/06/21 08:17:18;;;;;;;0.9;0.6;;;;;;;26.07;54.67969;931.7087;;;;
2021/06/21 08:19:44;;;;;;;2.3;0.6;;;;;;;25.72;54.73047;931.6038;;;;
2021/06/21 08:22:08;;;;;;;2.4;1.6;;;;;;;25.25;55.12305;931.6345;;;;
2021/06/21 08:24:35;;;;;;;1.6;0.9;;;;;;;25.48;52.05664;931.6186;;;;
2021/06/21 08:27:02;;;;;;;2.5;1.4;;;;;;;25.63;52.83008;931.6144;;;;
2021/06/21 08:29:26;;;;;;;1.5;1;;;;;;;25.78;52.45801;931.6428;;;;
2021/06/21 08:31:51;;;;;;;0.8;0.8;;;;;;;26.01;54.44727;931.5725;;;;
2021/06/21 08:34:18;;;;;;;0.7;0.7;;;;;;;27.11;49.11621;931.5977;;;;
2021/06/21 08:36:43;;;;;;;0.7;0.6;;;;;;;28.82;45.69727;931.5952;;;;
2021/06/21 08:39:08;;;;;;;2.4;1;;;;;;;29.94;42.39844;931.6456;;;;
2021/06/21 08:41:33;;;;;;;2;0.8;;;;;;;30.37;40.39746;931.6042;;;;
2021/06/21 08:43:58;;;;;;;4.8;0.6;;;;;;;31.37;39.50488;931.6492;;;;
2021/06/21 08:46:24;;;;;;;0.7;0.7;;;;;;;30.31;42.50488;931.5969;;;;
2021/06/21 08:48:49;;;;;;;4.5;1;;;;;;;30.98;39.32715;931.5803;;;;
2021/06/21 08:51:14;;;;;;;0.7;0.7;;;;;;;30.49;41.25586;931.6108;;;;
2021/06/21 08:53:40;;;;;;;3.4;1.2;;;;;;;31.14;40.11914;931.6312;;;;
2021/06/21 08:56:07;;;;;;;3;1.1;;;;;;;31.93;38.43945;931.6411;;;;
2021/06/21 08:58:30;;;;;;;5.3;1.3;;;;;;;31.21;39.50293;931.6633;;;;
2021/06/21 09:00:57;;;;;;;4.3;2.4;;;;;;;28.96;41.86621;931.5419;;;;
2021/06/21 09:03:22;;;;;;;0.7;0.7;;;;;;;28.35;45.70801;931.5695;;;;
2021/06/21 09:05:49;;;;;;;0.5;0.5;;;;;;;29.41;44.60059;931.5295;;;;
2021/06/21 09:08:14;;;;;;;1;0.9;;;;;;;28.37;46.80469;931.535;;;;
2021/06/21 09:10:42;;;;;;;0.3;0.3;;;;;;;27.91;44.51172;931.4775;;;;
2021/06/21 09:13:07;;;;;;;6.1;0.8;;;;;;;29.02;43.83594;931.5233;;;;
2021/06/21 09:15:38;;;;;;;1.5;0.6;;;;;;;28.55;44.41992;931.563;;;;
2021/06/21 09:18:04;;;;;;;2.1;1.4;;;;;;;28.77;44.60938;931.5647;;;;
2021/06/21 09:20:29;;;;;;;0.4;0.4;;;;;;;28.8;41.54199;931.4976;;;;
2021/06/21 09:23:00;;;;;;;0.9;0.7;;;;;;;29.3;41.32715;931.4833;;;;
2021/06/21 09:25:20;;;;;;;2.1;0.9;;;;;;;29.91;40.37988;931.5094;;;;
2021/06/21 09:27:46;;;;;;;2;1.2;;;;;;;30.01;40.44824;931.4579;;;;
2021/06/21 09:30:11;;;;;;;1.4;0.7;;;;;;;30.37;38.80957;931.4504;;;;
2021/06/21 09:32:39;;;;;;;0.4;0.4;;;;;;;30.65;39.21582;931.4456;;;;
2021/06/21 09:35:02;;;;;;;0.2;0.2;;;;;;;30.88;37.28711;931.4545;;;;
2021/06/21 09:37:27;;;;;;;1.2;0.9;;;;;;;29.78;39.82031;931.3563;;;;
2021/06/21 09:39:52;;;;;;;0.6;0.6;;;;;;;30.28;39.44531;931.3528;;;;
2021/06/21 09:42:19;;;;;;;0.6;0.6;;;;;;;30.46;38.31543;931.3239;;;;
2021/06/21 09:44:43;;;;;;;0.6;0.6;;;;;;;30.04;40.63086;931.3159;;;;
2021/06/21 09:47:08;;;;;;;0.4;0.4;;;;;;;28.94;41.43652;931.2584;;;;
2021/06/21 09:49:33;;;;;;;25.9;1.6;;;;;;;28.61;44.22461;931.2568;;;;
2021/06/21 09:52:00;;;;;;;3.6;0.9;;;;;;;28.33;45.25586;931.282;;;;
2021/06/21 09:54:25;;;;;;;1.2;0.6;;;;;;;27.74;44.47266;931.1935;;;;
2021/06/21 09:56:52;;;;;;;0.6;0.6;;;;;;;28.11;45.17285;931.2169;;;;
2021/06/21 09:59:17;;;;;;;0.7;0.7;;;;;;;28.31;46.63281;931.1823;;;;
2021/06/21 10:01:42;;;;;;;3.3;1.8;;;;;;;27.85;45.46875;931.2477;;;;
2021/06/21 10:04:07;;;;;;;0.7;0.5;;;;;;;27.83;48.22168;931.2383;;;;
2021/06/21 10:06:32;;;;;;;0.4;0.4;;;;;;;27.64;46.27734;931.2367;;;;
2021/06/21 10:08:58;;;;;;;1.3;1.1;;;;;;;27.58;46.23633;931.1512;;;;
2021/06/21 10:11:23;;;;;;;1.2;1.1;;;;;;;26.82;48.76367;931.1975;;;;
2021/06/21 10:13:50;;;;;;;4.8;1.1;;;;;;;27.25;46.85449;931.1121;;;;
2021/06/21 10:16:47;;;;;;;1.5;1.1;;;;;;;27.22;48.38086;931.1508;;;;
2021/06/21 10:19:13;;;;;;;0.5;0.5;;;;;;;27.76;46.45703;931.0894;;;;
2021/06/21 10:21:39;;;;;;;2.3;1;;;;;;;27.22;48.25098;931.142;;;;
2021/06/21 10:24:04;;;;;;;1.5;1.3;;;;;;;27.07;46.55078;931.1092;;;;
2021/06/21 10:26:29;;;;;;;0.6;0.6;;;;;;;27.41;48.33008;931.1244;;;;
2021/06/21 10:28:54;;;;;;;0.4;0.4;;;;;;;26.55;49.77734;931.025;;;;
2021/06/21 10:31:19;;;;;;;1.1;1;;;;;;;26.6;49.54688;931.0688;;;;
2021/06/21 10:33:44;;;;;;;0.6;0.6;;;;;;;26.9;48.32227;931.053;;;;
2021/06/21 10:36:11;;;;;;;2.4;0.5;;;;;;;26.72;49.46387;930.9695;;;;
2021/06/21 10:38:36;;;;;;;2;1.1;;;;;;;26.82;48.75195;930.9988;;;;
2021/06/21 10:41:02;;;;;;;1.5;1.4;;;;;;;27.16;47.93652;930.955;;;;
2021/06/21 10:43:27;;;;;;;0.3;0.3;;;;;;;27.37;46.08398;930.9178;;;;
2021/06/21 10:45:52;;;;;;;3.2;0.9;;;;;;;27.31;49.49414;930.9416;;;;
2021/06/21 10:48:17;;;;;;;1;0.6;;;;;;;27.58;47.6123;930.8931;;;;
2021/06/21 10:50:43;;;;;;;1.6;1.1;;;;;;;27.75;47.39258;930.9258;;;;
2021/06/21 10:53:08;;;;;;;1.4;1.1;;;;;;;27.78;47.00488;930.8611;;;;
2021/06/21 10:55:35;;;;;;;1.5;1.3;;;;;;;27.43;47.05176;930.7844;;;;
2021/06/21 10:57:58;;;;;;;0.9;0.5;;;;;;;27.12;48.9873;930.7687;;;;
2021/06/21 11:00:23;;;;;;;3.5;1.1;;;;;;;27.18;48.80371;930.837;;;;
2021/06/21 11:02:48;;;;;;;0.8;0.8;;;;;;;27.26;48.69434;930.87;;;;
2021/06/21 11:05:13;;;;;;;1;1;;;;;;;27.34;47.31543;930.8551;;;;
2021/06/21 11:07:39;;;;;;;1.8;0.7;;;;;;;27.78;45.12891;930.8811;;;;
2021/06/21 11:10:04;;;;;;;0.6;0.6;;;;;;;28.2;46.32324;930.8784;;;;
2021/06/21 11:12:29;;;;;;;0.8;0.8;;;;;;;28.46;44.37695;930.8899;;;;
2021/06/21 11:14:54;;;;;;;1.8;0.7;;;;;;;28.33;45.54102;930.8542;;;;
2021/06/21 11:17:20;;;;;;;3;1.7;;;;;;;28.26;44.97461;930.8596;;;;
2021/06/21 11:19:45;;;;;;;0.7;0.7;;;;;;;28.32;45.86035;930.8563;;;;
2021/06/21 11:22:12;;;;;;;3;0.9;;;;;;;27.84;46.72559;930.7764;;;;
2021/06/21 11:24:36;;;;;;;0.8;0.8;;;;;;;27.75;46.25293;930.8309;;;;
2021/06/21 11:27:01;;;;;;;0.6;0.4;;;;;;;27.43;48.02344;930.8018;;;;
2021/06/21 11:29:26;;;;;;;0.5;0.5;;;;;;;27.78;47.26563;930.8409;;;;
2021/06/21 11:31:53;;;;;;;5.6;1.1;;;;;;;28.24;44.55566;930.767;;;;
2021/06/21 11:34:18;;;;;;;0.3;0.3;;;;;;;28.58;45.17383;930.8313;;;;
2021/06/21 11:36:44;;;;;;;0.2;0.2;;;;;;;27.98;46.74023;930.8519;;;;
2021/06/21 11:39:08;;;;;;;1.1;0.8;;;;;;;28.14;46.94629;930.8178;;;;
2021/06/21 11:41:35;;;;;;;1.3;1.1;;;;;;;28.62;43.15527;930.8513;;;;
2021/06/21 11:44:01;;;;;;;0.3;0.3;;;;;;;28.61;44.41504;930.7794;;;;
2021/06/21 11:46:25;;;;;;;0.6;0.6;;;;;;;28.27;45.17871;930.7687;;;;
2021/06/21 11:48:51;;;;;;;1.9;1.3;;;;;;;28.36;43.70117;930.7151;;;;
2021/06/21 11:51:16;;;;;;;1.6;0.7;;;;;;;28.28;43.77637;930.7039;;;;
2021/06/21 11:53:43;;;;;;;1.1;1;;;;;;;28.37;43.19043;930.7203;;;;
2021/06/21 11:56:08;;;;;;;1.5;1.3;;;;;;;28.13;44.35645;930.644;;;;
2021/06/21 11:58:33;;;;;;;0.6;0.6;;;;;;;28.3;43.80273;930.6824;;;;
2021/06/21 12:00:59;;;;;;;0.9;0.8;;;;;;;28.19;43.06641;930.6544;;;;
2021/06/21 12:03:24;;;;;;;0.3;0.3;;;;;;;27.82;43.20898;930.7425;;;;
2021/06/21 12:05:49;;;;;;;1.7;0.8;;;;;;;27.42;44.85547;930.6635;;;;
2021/06/21 12:08:14;;;;;;;0.4;0.4;;;;;;;27.39;46.18164;930.5999;;;;
2021/06/21 12:10:39;;;;;;;1.9;1;;;;;;;27.91;46.68555;930.5773;;;;
2021/06/21 12:13:05;;;;;;;0.7;0.6;;;;;;;28.11;43.67578;930.5505;;;;
2021/06/21 12:15:30;;;;;;;0.4;0.3;;;;;;;27.87;44.3418;930.5736;;;;
2021/06/21 12:17:57;;;;;;;0.7;0.7;;;;;;;27.64;44.62793;930.481;;;;
2021/06/21 12:20:22;;;;;;;1.9;0.3;;;;;;;27.56;44.61914;930.5069;;;;
2021/06/21 12:22:47;;;;;;;0.1;0.1;;;;;;;27.76;45.16309;930.604;;;;
2021/06/21 12:25:12;;;;;;;1.8;0.5;;;;;;;27.95;44.16016;930.5679;;;;
2021/06/21 12:27:37;;;;;;;1.3;1.2;;;;;;;28.1;45.10156;930.4667;;;;
2021/06/21 12:30:02;;;;;;;1.3;1.1;;;;;;;28.35;43.5332;930.4613;;;;
2021/06/21 12:32:28;;;;;;;1.7;0.7;;;;;;;28.47;44.25781;930.5069;;;;
2021/06/21 12:34:54;;;;;;;1.1;0.6;;;;;;;28.71;42.62891;930.451;;;;
2021/06/21 12:37:19;;;;;;;0.6;0.6;;;;;;;28.83;41.81836;930.39;;;;
2021/06/21 12:39:44;;;;;;;0.6;0.6;;;;;;;28.83;43.22266;930.403;;;;
2021/06/21 12:42:09;;;;;;;1.6;0.8;;;;;;;28.71;43.86621;930.451;;;;
2021/06/21 12:44:34;;;;;;;3.1;0.9;;;;;;;28.42;44.72949;930.3903;;;;
2021/06/21 12:47:01;;;;;;;0.8;0.8;;;;;;;28.19;45.76367;930.4383;;;;
2021/06/21 12:49:26;;;;;;;3.1;0.7;;;;;;;28.45;45.24414;930.372;;;;
2021/06/21 12:51:52;;;;;;;2.5;0.6;;;;;;;28.39;44.71387;930.3771;;;;
2021/06/21 12:54:17;;;;;;;0.9;0.8;;;;;;;28.24;44.30762;930.3825;;;;
2021/06/21 12:56:42;;;;;;;1.6;1.2;;;;;;;28.09;44.00781;930.3594;;;;
2021/06/21 12:59:08;;;;;;;1.3;1.1;;;;;;;28.15;43.66992;930.3698;;;;
2021/06/21 13:01:33;;;;;;;0.6;0.6;;;;;;;28.09;43.54395;930.4311;;;;
2021/06/21 13:04:01;;;;;;;4.6;1.3;;;;;;;27.89;44.48633;930.4799;;;;
2021/06/21 13:06:26;;;;;;;4.8;1;;;;;;;28;43.51172;930.3826;;;;
2021/06/21 13:08:58;;;;;;;0.6;0.6;;;;;;;27.98;45.03027;930.3709;;;;
2021/06/21 13:11:25;;;;;;;0.6;0.6;;;;;;;27.81;44.02734;930.4214;;;;
2021/06/21 13:13:50;;;;;;;2.7;1.3;;;;;;;27.49;45.98926;930.3831;;;;
2021/06/21 13:16:16;;;;;;;0.6;0.5;;;;;;;27.59;45.67969;930.3859;;;;
2021/06/21 13:18:40;;;;;;;0.5;0.5;;;;;;;27.69;46.2959;930.4204;;;;
2021/06/21 13:21:06;;;;;;;2;0.8;;;;;;;27.97;47.2373;930.301;;;;
2021/06/21 13:23:31;;;;;;;0.6;0.6;;;;;;;28.28;46.05957;930.2925;;;;
2021/06/21 13:25:58;;;;;;;2.7;1;;;;;;;28.96;45.04395;930.2817;;;;
2021/06/21 13:28:27;;;;;;;2.7;0.8;;;;;;;29.05;45.44727;930.3187;;;;
2021/06/21 13:30:46;;;;;;;2.4;1.5;;;;;;;29.07;43.99707;930.3929;;;;
2021/06/21 13:33:12;;;;;;;0.2;0.2;;;;;;;29.08;43.42578;930.291;;;;
2021/06/21 13:35:38;;;;;;;1.4;1.1;;;;;;;29.06;43.49414;930.3492;;;;
2021/06/21 13:38:03;;;;;;;0.7;0.7;;;;;;;29.06;42.60254;930.3176;;;;
2021/06/21 13:40:29;;;;;;;0.5;0.5;;;;;;;28.77;43.38379;930.2896;;;;
2021/06/21 13:42:54;;;;;;;3.6;1.6;;;;;;;28.48;44.0332;930.3597;;;;
2021/06/21 13:45:19;;;;;;;7;1;;;;;;;28.15;46.17578;930.2905;;;;
2021/06/21 13:47:44;;;;;;;0.2;0.2;;;;;;;27.9;46.04297;930.3181;;;;
2021/06/21 13:50:10;;;;;;;0.9;0.7;;;;;;;27.85;46.88184;930.305;;;;
2021/06/21 13:52:35;;;;;;;1.1;1;;;;;;;28.28;45.11914;930.288;;;;
2021/06/21 13:55:02;;;;;;;1.6;0.8;;;;;;;28.54;45.13379;930.2385;;;;
2021/06/21 13:57:27;;;;;;;1.2;1;;;;;;;28.4;44.94043;930.2316;;;;
2021/06/21 13:59:54;;;;;;;0.4;0.4;;;;;;;27.87;45.56543;930.2325;;;;
2021/06/21 14:02:19;;;;;;;0.7;0.7;;;;;;;27.8;46.5791;930.2153;;;;
2021/06/21 14:04:44;;;;;;;5.1;1.6;;;;;;;27.82;45.77441;930.13;;;;
2021/06/21 14:07:09;;;;;;;0.8;0.8;;;;;;;27.74;46.02734;930.1905;;;;
2021/06/21 14:09:35;;;;;;;1.8;0.8;;;;;;;27.5;46.01465;930.1848;;;;
2021/06/21 14:12:00;;;;;;;0.9;0.8;;;;;;;27.57;47.25586;930.1675;;;;
2021/06/21 14:14:27;;;;;;;1.2;0.8;;;;;;;27.77;46.68262;930.0784;;;;
2021/06/21 14:16:52;;;;;;;1.5;1.1;;;;;;;27.98;44.79199;930.0815;;;;
2021/06/21 14:19:17;;;;;;;0.7;0.7;;;;;;;28.19;44.98047;930.077;;;;